createdAt,value
2023-01-10T00:01:12.287Z,5.73
2023-01-10T00:03:42.399Z,6.93
2023-01-10T00:06:12.773Z,6.53
2023-01-10T00:08:42.955Z,8.70
2023-01-10T00:11:25.296Z,9.33
2023-01-10T00:13:59.964Z,6.63
2023-01-10T00:16:30.088Z,5.93
2023-01-10T00:19:00.188Z,5.47
2023-01-10T00:21:30.312Z,7.40
2023-01-10T00:24:15.254Z,8.83
2023-01-10T00:26:46.369Z,10.10
2023-01-10T00:29:19.028Z,7.27
2023-01-10T00:31:49.150Z,13.83
2023-01-10T00:34:19.565Z,6.47
2023-01-10T00:36:51.614Z,5.60
2023-01-10T00:39:22.250Z,11.73
2023-01-10T00:42:06.136Z,6.90
2023-01-10T00:44:39.154Z,6.53
2023-01-10T00:47:13.128Z,9.00
2023-01-10T00:49:44.157Z,9.23
2023-01-10T00:52:14.585Z,10.27
2023-01-10T00:54:45.679Z,5.23
2023-01-10T00:57:15.731Z,6.30
2023-01-10T00:59:48.436Z,6.73
2023-01-10T01:02:18.667Z,9.97
2023-01-10T01:04:48.837Z,6.20
2023-01-10T01:07:18.955Z,7.80
2023-01-10T01:10:01.501Z,7.87
2023-01-10T01:12:31.710Z,10.87
2023-01-10T01:15:07.598Z,10.33
2023-01-10T01:17:37.726Z,8.57
2023-01-10T01:20:10.600Z,5.53
2023-01-10T01:22:40.702Z,9.87
2023-01-10T01:25:12.156Z,5.77
2023-01-10T01:27:42.379Z,6.23
2023-01-10T01:30:16.870Z,9.67
2023-01-10T01:32:47.074Z,7.53
2023-01-10T01:35:19.049Z,10.47
2023-01-10T01:37:49.246Z,8.07
2023-01-10T01:40:22.235Z,8.57
2023-01-10T01:42:55.902Z,8.80
2023-01-10T01:45:42.138Z,8.17
2023-01-10T01:48:24.484Z,12.83
2023-01-10T01:51:05.803Z,9.27
2023-01-10T01:53:42.553Z,9.30
2023-01-10T01:56:21.854Z,10.33
2023-01-10T01:59:00.672Z,10.03
2023-01-10T02:01:36.958Z,10.70
2023-01-10T02:04:16.193Z,9.23
2023-01-10T02:06:49.188Z,8.33
2023-01-10T02:09:29.537Z,12.70
2023-01-10T02:11:59.741Z,10.57
2023-01-10T02:14:30.058Z,8.37
2023-01-10T02:17:03.524Z,12.13
2023-01-10T02:19:54.197Z,13.60
2023-01-10T02:23:24.967Z,10.80
2023-01-10T02:26:46.648Z,9.93
2023-01-10T02:30:04.601Z,8.10
2023-01-10T02:33:04.283Z,10.77
2023-01-10T02:36:11.424Z,7.37
2023-01-10T02:39:01.400Z,11.30
2023-01-10T02:41:40.822Z,10.50
2023-01-10T02:44:19.792Z,7.43
2023-01-10T02:46:52.490Z,6.90
2023-01-10T02:49:25.251Z,8.50
2023-01-10T02:51:55.502Z,9.43
2023-01-10T02:54:30.736Z,9.00
2023-01-10T02:57:34.444Z,11.10
2023-01-10T03:00:42.559Z,6.97
2023-01-10T03:03:38.030Z,15.07
2023-01-10T03:06:29.134Z,8.57
2023-01-10T03:09:11.899Z,10.30
2023-01-10T03:11:45.408Z,10.73
2023-01-10T03:14:22.168Z,10.80
2023-01-10T03:17:02.409Z,5.53
2023-01-10T03:19:40.230Z,8.17
2023-01-10T03:22:17.600Z,9.60
2023-01-10T03:24:52.414Z,8.30
2023-01-10T03:27:32.245Z,8.10
2023-01-10T03:30:12.502Z,6.33
2023-01-10T03:32:43.256Z,10.07
2023-01-10T03:35:16.019Z,10.80
2023-01-10T03:37:58.467Z,13.20
2023-01-10T03:40:39.625Z,8.37
2023-01-10T03:43:36.895Z,11.20
2023-01-10T03:46:14.141Z,9.43
2023-01-10T03:48:51.719Z,7.77
2023-01-10T03:51:27.026Z,8.27
2023-01-10T03:54:04.029Z,9.47
2023-01-10T03:56:34.145Z,18.53
2023-01-10T03:59:04.499Z,9.07
2023-01-10T04:01:34.669Z,10.47
2023-01-10T04:04:05.136Z,11.10
2023-01-10T04:06:35.470Z,11.83
2023-01-10T04:09:08.266Z,9.30
2023-01-10T04:11:38.484Z,12.20
2023-01-10T04:14:09.141Z,10.43
2023-01-10T04:16:39.302Z,12.53
2023-01-10T04:19:09.598Z,10.07
2023-01-10T04:21:39.704Z,16.03
2023-01-10T04:24:13.030Z,6.60
2023-01-10T04:26:43.168Z,7.47
2023-01-10T04:29:13.541Z,9.87
2023-01-10T04:31:44.024Z,11.50
2023-01-10T04:34:16.860Z,8.43
2023-01-10T04:36:47.631Z,18.30
2023-01-10T04:39:21.322Z,10.63
2023-01-10T04:41:51.434Z,8.93
2023-01-10T04:44:21.538Z,7.93
2023-01-10T04:46:52.232Z,7.90
2023-01-10T04:49:22.314Z,9.73
2023-01-10T04:51:52.434Z,8.00
2023-01-10T04:54:26.516Z,15.57
2023-01-10T04:56:56.658Z,9.53
2023-01-10T04:59:26.847Z,10.00
2023-01-10T05:01:57.077Z,9.70
2023-01-10T05:04:27.592Z,9.37
2023-01-10T05:06:57.677Z,10.83
2023-01-10T05:09:30.311Z,13.77
2023-01-10T05:12:00.494Z,11.47
2023-01-10T05:14:30.595Z,11.30
2023-01-10T05:17:00.770Z,7.13
2023-01-10T05:19:30.844Z,8.87
2023-01-10T05:22:00.955Z,7.37
2023-01-10T05:24:33.562Z,10.93
2023-01-10T05:27:03.670Z,10.23
2023-01-10T05:29:35.195Z,7.80
2023-01-10T05:32:05.342Z,7.97
2023-01-10T05:34:35.421Z,11.37
2023-01-10T05:37:05.679Z,9.90
2023-01-10T05:39:39.976Z,10.60
2023-01-10T05:42:10.107Z,9.73
2023-01-10T05:44:40.232Z,12.67
2023-01-10T05:47:10.364Z,16.03
2023-01-10T05:49:40.644Z,12.33
2023-01-10T05:52:11.989Z,8.00
2023-01-10T05:54:45.203Z,8.43
2023-01-10T05:57:15.337Z,8.67
2023-01-10T05:59:45.409Z,7.33
2023-01-10T06:02:15.645Z,10.40
2023-01-10T06:04:46.094Z,6.50
2023-01-10T06:07:16.204Z,7.80
2023-01-10T06:09:51.127Z,9.53
2023-01-10T06:12:23.705Z,8.47
2023-01-10T06:14:53.761Z,12.87
2023-01-10T06:17:24.016Z,12.80
2023-01-10T06:19:54.761Z,11.57
2023-01-10T06:22:26.251Z,10.40
2023-01-10T06:25:00.460Z,14.67
2023-01-10T06:27:33.898Z,7.67
2023-01-10T06:30:04.109Z,13.83
2023-01-10T06:32:34.237Z,18.67
2023-01-10T06:35:05.882Z,16.03
2023-01-10T06:37:36.361Z,9.80
2023-01-10T06:40:11.021Z,16.73
2023-01-10T06:42:43.119Z,16.40
2023-01-10T06:45:16.221Z,10.07
2023-01-10T06:47:46.397Z,12.20
2023-01-10T06:50:19.441Z,12.10
2023-01-10T06:52:49.557Z,9.27
2023-01-10T06:55:23.156Z,17.33
2023-01-10T06:57:58.353Z,12.23
2023-01-10T07:00:30.208Z,10.30
2023-01-10T07:03:03.725Z,10.83
2023-01-10T07:05:33.859Z,11.47
2023-01-10T07:08:03.984Z,13.70
2023-01-10T07:10:36.827Z,11.13
2023-01-10T07:13:07.261Z,12.03
2023-01-10T07:15:37.511Z,12.47
2023-01-10T07:18:12.694Z,11.93
2023-01-10T07:20:43.062Z,12.83
2023-01-10T07:23:15.313Z,12.17
2023-01-10T07:25:49.342Z,13.90
2023-01-10T07:28:19.544Z,13.07
2023-01-10T07:30:49.691Z,15.57
2023-01-10T07:33:19.721Z,10.10
2023-01-10T07:35:49.930Z,16.40
2023-01-10T07:38:20.059Z,12.67
2023-01-10T07:40:52.850Z,13.80
2023-01-10T07:43:22.984Z,15.43
2023-01-10T07:45:53.259Z,14.23
2023-01-10T07:48:23.548Z,9.20
2023-01-10T07:51:02.193Z,14.10
2023-01-10T07:53:33.265Z,11.67
2023-01-10T07:56:07.639Z,13.70
2023-01-10T07:58:38.154Z,13.20
2023-01-10T08:01:10.325Z,15.63
2023-01-10T08:03:40.564Z,14.77
2023-01-10T08:06:14.821Z,14.97
2023-01-10T08:08:46.829Z,20.47
2023-01-10T08:11:19.627Z,12.97
2023-01-10T08:13:49.710Z,17.83
2023-01-10T08:16:20.939Z,21.63
2023-01-10T08:18:53.275Z,17.47
2023-01-10T08:21:24.395Z,13.80
2023-01-10T08:23:54.552Z,13.97
2023-01-10T08:26:27.300Z,13.20
2023-01-10T08:28:57.364Z,11.73
2023-01-10T08:31:27.585Z,14.30
2023-01-10T08:33:57.744Z,14.10
2023-01-10T08:36:29.011Z,15.67
2023-01-10T08:38:59.182Z,9.97
2023-01-10T08:41:31.910Z,12.27
2023-01-10T08:44:02.012Z,17.57
2023-01-10T08:46:32.479Z,10.47
2023-01-10T08:49:02.631Z,12.57
2023-01-10T08:51:32.835Z,16.77
2023-01-10T08:54:03.021Z,10.03
2023-01-10T08:56:42.629Z,17.33
2023-01-10T08:59:12.722Z,10.60
2023-01-10T09:01:42.998Z,17.20
2023-01-10T09:04:13.145Z,12.27
2023-01-10T09:06:43.370Z,9.83
2023-01-10T09:09:15.969Z,16.13
2023-01-10T09:11:49.076Z,10.18
2023-01-10T09:14:19.595Z,10.45
2023-01-10T09:16:52.194Z,11.02
2023-01-10T09:19:24.482Z,10.68
2023-01-10T09:21:54.663Z,9.52
2023-01-10T09:24:24.914Z,13.18
2023-01-10T09:26:57.631Z,11.18
2023-01-10T09:29:27.723Z,11.93
2023-01-10T09:31:57.799Z,13.75
2023-01-10T09:34:27.891Z,11.60
2023-01-10T09:36:58.194Z,8.43
2023-01-10T09:39:29.414Z,12.73
2023-01-10T09:42:23.872Z,16.98
2023-01-10T09:45:04.477Z,10.82
2023-01-10T09:47:47.591Z,13.93
2023-01-10T09:50:26.945Z,13.60
2023-01-10T09:53:02.383Z,9.50
2023-01-10T09:55:36.893Z,13.27
2023-01-10T09:58:17.519Z,11.23
2023-01-10T10:00:58.093Z,12.10
2023-01-10T10:03:40.940Z,12.85
2023-01-10T10:06:15.371Z,26.58
2023-01-10T10:08:50.639Z,13.88
2023-01-10T10:11:50.926Z,13.05
2023-01-10T10:14:44.499Z,8.32
2023-01-10T10:17:42.686Z,10.73
2023-01-10T10:20:50.165Z,12.35
2023-01-10T10:23:39.168Z,10.35
2023-01-10T10:26:22.691Z,10.98
2023-01-10T10:29:35.513Z,15.35
2023-01-10T10:32:39.561Z,14.18
2023-01-10T10:35:18.167Z,11.30
2023-01-10T10:37:54.963Z,11.63
2023-01-10T10:40:31.594Z,10.40
2023-01-10T10:43:23.165Z,8.05
2023-01-10T10:46:01.409Z,9.80
2023-01-10T10:48:43.216Z,12.48
2023-01-10T10:51:22.823Z,11.48
2023-01-10T10:53:52.896Z,13.20
2023-01-10T10:56:28.326Z,14.68
2023-01-10T10:59:02.313Z,11.98
2023-01-10T11:01:32.603Z,9.55
2023-01-10T11:04:11.884Z,11.23
2023-01-10T11:06:48.915Z,12.05
2023-01-10T11:09:26.152Z,11.73
2023-01-10T11:11:59.645Z,11.27
2023-01-10T11:14:51.777Z,10.10
2023-01-10T11:17:25.945Z,12.35
2023-01-10T11:20:04.906Z,10.10
2023-01-10T11:22:43.483Z,10.15
2023-01-10T11:25:20.372Z,8.43
2023-01-10T11:27:55.073Z,13.57
2023-01-10T11:30:29.855Z,13.25
2023-01-10T11:33:04.261Z,10.40
2023-01-10T11:35:42.278Z,10.27
2023-01-10T11:38:29.137Z,12.18
2023-01-10T11:41:03.380Z,9.40
2023-01-10T11:43:38.641Z,11.10
2023-01-10T11:46:18.118Z,10.98
2023-01-10T11:49:05.811Z,8.05
2023-01-10T11:51:47.810Z,10.57
2023-01-10T11:54:26.519Z,7.67
2023-01-10T11:57:03.134Z,8.07
2023-01-10T11:59:33.620Z,12.17
2023-01-10T12:02:18.009Z,12.57
2023-01-10T12:04:49.379Z,10.32
2023-01-10T12:07:22.675Z,14.02
2023-01-10T12:10:03.237Z,10.05
2023-01-10T12:12:36.442Z,9.82
2023-01-10T12:15:30.164Z,11.57
2023-01-10T12:18:05.469Z,13.88
2023-01-10T12:20:44.626Z,11.85
2023-01-10T12:23:25.638Z,11.13
2023-01-10T12:26:11.141Z,6.73
2023-01-10T12:28:49.508Z,12.80
2023-01-10T12:31:20.665Z,12.40
2023-01-10T12:33:58.904Z,9.07
2023-01-10T12:36:47.465Z,14.37
2023-01-10T12:39:25.887Z,12.87
2023-01-10T12:42:20.338Z,11.00
2023-01-10T12:45:00.975Z,16.87
2023-01-10T12:47:42.694Z,8.97
2023-01-10T12:50:21.853Z,12.50
2023-01-10T12:53:03.697Z,12.23
2023-01-10T12:55:43.439Z,9.07
2023-01-10T12:58:23.777Z,7.73
2023-01-10T13:01:01.432Z,8.83
2023-01-10T13:03:38.975Z,9.53
2023-01-10T13:06:24.283Z,8.53
2023-01-10T13:08:57.441Z,10.10
2023-01-10T13:11:38.476Z,14.10
2023-01-10T13:14:13.598Z,11.57
2023-01-10T13:16:53.351Z,8.97
2023-01-10T13:19:29.971Z,13.80
2023-01-10T13:22:22.930Z,9.53
2023-01-10T13:25:02.142Z,14.20
2023-01-10T13:27:38.256Z,9.00
2023-01-10T13:30:29.315Z,9.50
2023-01-10T13:33:11.536Z,11.47
2023-01-10T13:35:45.456Z,8.40
2023-01-10T13:38:26.470Z,7.30
2023-01-10T13:41:03.806Z,11.17
2023-01-10T13:44:01.149Z,10.80
2023-01-10T13:46:58.408Z,6.97
2023-01-10T13:49:52.646Z,11.27
2023-01-10T13:52:43.749Z,10.27
2023-01-10T13:55:30.544Z,12.27
2023-01-10T13:58:03.355Z,8.20
2023-01-10T14:01:08.314Z,8.87
2023-01-10T14:03:59.308Z,8.77
2023-01-10T14:06:43.990Z,10.63
2023-01-10T14:09:40.536Z,12.90
2023-01-10T14:12:29.481Z,11.43
2023-01-10T14:15:06.163Z,10.63
2023-01-10T14:17:40.598Z,5.90
2023-01-10T14:20:24.708Z,10.53
2023-01-10T14:23:32.139Z,12.13
2023-01-10T14:26:03.193Z,12.13
2023-01-10T14:28:37.514Z,15.73
2023-01-10T14:31:21.159Z,8.63
2023-01-10T14:33:55.617Z,9.10
2023-01-10T14:36:32.383Z,9.60
2023-01-10T14:39:09.856Z,12.87
2023-01-10T14:41:46.551Z,6.57
2023-01-10T14:44:23.988Z,8.23
2023-01-10T14:46:57.460Z,9.40
2023-01-10T14:49:35.453Z,12.33
2023-01-10T14:52:21.384Z,10.03
2023-01-10T14:54:58.499Z,9.57
2023-01-10T14:57:28.604Z,9.03
2023-01-10T15:00:08.575Z,12.63
2023-01-10T15:02:39.241Z,10.90
2023-01-10T15:05:22.257Z,19.67
2023-01-10T15:07:52.498Z,10.33
2023-01-10T15:10:31.215Z,11.40
2023-01-10T15:13:06.117Z,10.40
2023-01-10T15:15:40.928Z,12.93
2023-01-10T15:18:31.397Z,11.33
2023-01-10T15:21:04.945Z,10.47
2023-01-10T15:23:40.843Z,12.87
2023-01-10T15:26:16.421Z,9.03
2023-01-10T15:28:49.271Z,19.20
2023-01-10T15:31:20.344Z,10.90
2023-01-10T15:33:56.777Z,9.73
2023-01-10T15:36:31.571Z,15.20
2023-01-10T15:39:01.734Z,14.13
2023-01-10T15:41:38.610Z,8.10
2023-01-10T15:44:39.531Z,14.03
2023-01-10T15:47:41.746Z,10.90
2023-01-10T15:50:28.941Z,15.17
2023-01-10T15:53:04.474Z,10.10
2023-01-10T15:55:49.922Z,14.17
2023-01-10T15:58:30.856Z,8.40
2023-01-10T16:01:04.453Z,18.33
2023-01-10T16:03:39.629Z,14.50
2023-01-10T16:06:21.649Z,10.83
2023-01-10T16:08:57.382Z,7.33
2023-01-10T16:11:51.147Z,7.83
2023-01-10T16:14:21.225Z,6.47
2023-01-10T16:16:51.420Z,11.03
2023-01-10T16:19:21.568Z,9.50
2023-01-10T16:21:58.165Z,6.70
2023-01-10T16:24:34.165Z,4.23
2023-01-10T16:27:08.664Z,7.80
2023-01-10T16:29:39.601Z,5.60
2023-01-10T16:32:17.523Z,10.67
2023-01-10T16:34:48.815Z,5.37
2023-01-10T16:37:18.948Z,8.37
2023-01-10T16:39:52.670Z,5.27
2023-01-10T16:42:49.762Z,6.37
2023-01-10T16:45:19.989Z,5.80
2023-01-10T16:47:51.767Z,8.17
2023-01-10T16:50:23.063Z,11.50
2023-01-10T16:52:53.704Z,5.90
2023-01-10T16:55:36.455Z,5.07
2023-01-10T16:58:06.737Z,5.93
2023-01-10T17:00:38.109Z,5.43
2023-01-10T17:03:12.894Z,6.83
2023-01-10T17:05:46.103Z,3.17
2023-01-10T17:08:21.795Z,4.60
2023-01-10T17:11:01.803Z,4.87
2023-01-10T17:13:37.437Z,4.90
2023-01-10T17:16:08.739Z,7.73
2023-01-10T17:18:39.572Z,6.40
2023-01-10T17:21:16.996Z,3.77
2023-01-10T17:23:51.015Z,4.67
2023-01-10T17:26:23.721Z,2.90
2023-01-10T17:28:54.532Z,3.10
2023-01-10T17:31:24.801Z,5.73
2023-01-10T17:33:54.984Z,2.73
2023-01-10T17:36:33.100Z,5.03
2023-01-10T17:39:04.359Z,6.37
2023-01-10T17:41:37.401Z,3.83
2023-01-10T17:44:08.560Z,5.60
2023-01-10T17:46:39.964Z,5.70
2023-01-10T17:49:13.205Z,3.53
2023-01-10T17:51:43.854Z,2.83
2023-01-10T17:54:15.194Z,5.40
2023-01-10T17:56:48.425Z,2.83
2023-01-10T17:59:19.687Z,2.70
2023-01-10T18:01:50.191Z,4.47
2023-01-10T18:04:20.459Z,2.17
2023-01-10T18:06:52.136Z,3.77
2023-01-10T18:09:22.289Z,4.87
2023-01-10T18:11:54.997Z,4.07
2023-01-10T18:14:39.909Z,3.50
2023-01-10T18:17:19.026Z,3.20
2023-01-10T18:19:49.317Z,3.27
2023-01-10T18:22:32.121Z,4.77
2023-01-10T18:25:05.324Z,2.40
2023-01-10T18:27:40.534Z,2.63
2023-01-10T18:30:21.340Z,3.37
2023-01-10T18:32:52.545Z,3.33
2023-01-10T18:35:23.410Z,4.87
2023-01-10T18:37:55.323Z,3.17
2023-01-10T18:40:26.028Z,2.87
2023-01-10T18:42:59.125Z,3.63
2023-01-10T18:45:30.623Z,1.70
2023-01-10T18:48:02.199Z,1.63
2023-01-10T18:50:32.497Z,2.20
2023-01-10T18:53:02.643Z,1.20
2023-01-10T18:55:32.736Z,1.93
2023-01-10T18:58:10.434Z,2.53
2023-01-10T19:00:40.582Z,2.10
2023-01-10T19:03:10.738Z,1.03
2023-01-10T19:05:42.560Z,2.07
2023-01-10T19:08:13.878Z,1.70
2023-01-10T19:11:13.428Z,2.50
2023-01-10T19:13:39.774Z,1.67
2023-01-10T19:16:19.170Z,2.70
2023-01-10T19:18:54.454Z,3.90
2023-01-10T19:21:27.272Z,3.03
2023-01-10T19:23:59.050Z,1.80
2023-01-10T19:26:31.777Z,1.83
2023-01-10T19:29:05.659Z,4.10
2023-01-10T19:31:36.359Z,1.87
2023-01-10T19:34:06.661Z,0.87
2023-01-10T19:36:37.173Z,1.40
2023-01-10T19:39:07.942Z,1.13
2023-01-10T19:41:39.391Z,4.50
2023-01-10T19:44:15.257Z,1.47
2023-01-10T19:46:47.600Z,5.10
2023-01-10T19:49:20.366Z,2.87
2023-01-10T19:51:56.105Z,2.73
2023-01-10T19:54:32.021Z,1.33
2023-01-10T19:57:02.461Z,1.47
2023-01-10T19:59:36.189Z,2.40
2023-01-10T20:02:06.493Z,3.10
2023-01-10T20:04:36.677Z,1.33
2023-01-10T20:07:07.075Z,2.17
2023-01-10T20:09:37.647Z,2.00
2023-01-10T20:12:08.340Z,1.07
2023-01-10T20:14:41.117Z,1.17
2023-01-10T20:17:12.330Z,2.50
2023-01-10T20:19:42.973Z,1.47
2023-01-10T20:22:13.431Z,1.73
2023-01-10T20:24:43.545Z,1.30
2023-01-10T20:27:13.694Z,1.20
2023-01-10T20:29:46.452Z,1.93
2023-01-10T20:32:17.214Z,1.10
2023-01-10T20:34:49.718Z,1.90
2023-01-10T20:37:20.007Z,2.03
2023-01-10T20:39:50.192Z,0.77
2023-01-10T20:42:20.453Z,1.93
2023-01-10T20:44:53.313Z,2.70
2023-01-10T20:47:24.311Z,0.83
2023-01-10T20:49:54.414Z,1.37
2023-01-10T20:52:25.788Z,1.43
2023-01-10T20:54:55.892Z,1.67
2023-01-10T20:57:26.059Z,0.97
2023-01-10T20:59:58.767Z,1.57
2023-01-10T21:02:29.149Z,1.30
2023-01-10T21:04:59.312Z,1.17
2023-01-10T21:07:29.441Z,1.37
2023-01-10T21:09:59.567Z,1.87
2023-01-10T21:12:31.762Z,1.57
2023-01-10T21:15:04.621Z,0.80
2023-01-10T21:17:34.795Z,0.80
2023-01-10T21:20:04.904Z,1.83
2023-01-10T21:22:35.032Z,1.20
2023-01-10T21:25:05.465Z,1.10
2023-01-10T21:27:36.714Z,1.20
2023-01-10T21:30:11.796Z,1.53
2023-01-10T21:32:42.276Z,2.30
2023-01-10T21:35:12.761Z,2.00
2023-01-10T21:37:43.186Z,1.10
2023-01-10T21:40:14.589Z,1.53
2023-01-10T21:42:46.984Z,1.53
2023-01-10T21:45:19.973Z,1.23
2023-01-10T21:47:51.544Z,1.03
2023-01-10T21:50:23.192Z,0.50
2023-01-10T21:52:53.757Z,2.10
2023-01-10T21:55:24.001Z,0.70
2023-01-10T21:57:54.199Z,0.80
2023-01-10T22:00:27.798Z,0.80
2023-01-10T22:02:59.937Z,1.10
2023-01-10T22:05:30.865Z,1.43
2023-01-10T22:08:01.621Z,0.50
2023-01-10T22:10:34.775Z,0.60
2023-01-10T22:13:05.220Z,1.00
2023-01-10T22:15:43.586Z,0.67
2023-01-10T22:18:15.562Z,0.77
2023-01-10T22:20:47.748Z,0.80
2023-01-10T22:23:17.867Z,0.70
2023-01-10T22:25:48.005Z,0.60
2023-01-10T22:28:20.106Z,1.77
2023-01-10T22:30:53.082Z,0.50
2023-01-10T22:33:23.180Z,0.93
2023-01-10T22:35:53.297Z,0.60
2023-01-10T22:38:23.408Z,1.30
2023-01-10T22:40:54.796Z,0.50
2023-01-10T22:43:26.120Z,0.60
2023-01-10T22:46:00.161Z,0.40
2023-01-10T22:48:30.345Z,0.90
2023-01-10T22:51:01.581Z,1.20
2023-01-10T22:53:33.506Z,0.93
2023-01-10T22:56:05.880Z,0.40
2023-01-10T22:58:37.717Z,0.87
2023-01-10T23:01:11.293Z,0.50
2023-01-10T23:03:41.384Z,0.50
2023-01-10T23:06:14.018Z,0.80
2023-01-10T23:08:45.350Z,0.40
2023-01-10T23:11:19.751Z,0.60
2023-01-10T23:13:51.077Z,0.43
2023-01-10T23:16:29.082Z,0.50
2023-01-10T23:19:01.241Z,0.70
2023-01-10T23:21:31.572Z,0.90
2023-01-10T23:24:01.763Z,0.70
2023-01-10T23:26:33.268Z,1.00
2023-01-10T23:29:03.791Z,0.70
2023-01-10T23:31:36.509Z,1.57
2023-01-10T23:34:06.686Z,1.87
2023-01-10T23:36:37.027Z,1.13
2023-01-10T23:39:07.283Z,1.47
2023-01-10T23:41:37.515Z,1.47
2023-01-10T23:44:10.465Z,0.90
2023-01-10T23:46:43.128Z,1.43
2023-01-10T23:49:14.527Z,0.80
2023-01-10T23:51:44.597Z,0.90
2023-01-10T23:54:15.069Z,0.50
2023-01-10T23:56:47.381Z,0.50
2023-01-10T23:59:18.623Z,0.40
